Time;durP1;ratioP1;P1;durP2;ratioP2;P2;SDS_P1;SDS_P2;PMS_P1;PMS_P2;Temp;Humidity;BMP_temperature;BMP_pressure;BME280_temperature;BME280_humidity;BME280_pressure;Samples;Min_cycle;Max_cycle;Signal;HPM_P1;HPM_P2
2022/12/15 00:39:11;;;;;;;;;;;-5.50;99.90;;;;;;5071877;28;20048;-42
2022/12/15 00:41:37;;;;;;;26.77;11.00;;;-5.50;99.90;;;;;;5053242;28;20356;-43
2022/12/15 00:44:03;;;;;;;26.08;11.15;;;-5.40;99.90;;;;;;5070618;28;20047;-45
2022/12/15 01:22:05;;;;;;;;;;;-5.50;99.90;;;;;;5069998;28;20044;-47
2022/12/15 01:24:31;;;;;;;24.42;10.77;;;-5.50;99.90;;;;;;5058050;28;20283;-44
2022/12/15 01:26:56;;;;;;;20.73;10.55;;;-5.40;99.90;;;;;;5067696;28;20119;-44
2022/12/15 01:29:23;;;;;;;29.52;11.55;;;-5.60;99.90;;;;;;5070601;28;20079;-44
2022/12/15 01:31:48;;;;;;;29.30;11.77;;;-5.50;99.90;;;;;;5069847;28;20036;-43
2022/12/15 01:34:14;;;;;;;26.88;12.35;;;-5.50;99.90;;;;;;5070404;28;20032;-43
2022/12/15 01:36:40;;;;;;;25.50;11.75;;;-5.60;99.90;;;;;;5070295;28;20075;-42
2022/12/15 01:39:06;;;;;;;27.67;12.13;;;-5.50;99.90;;;;;;5052022;28;20120;-43
2022/12/15 01:41:32;;;;;;;28.05;11.80;;;-5.60;99.90;;;;;;5070226;28;20503;-42
2022/12/15 01:44:22;;;;;;;27.92;13.18;;;-5.50;99.90;;;;;;5069973;28;20041;-44
2022/12/15 01:46:52;;;;;;;26.50;12.93;;;-5.50;99.90;;;;;;5070335;28;20040;-43
2022/12/15 01:49:25;;;;;;;27.55;12.45;;;-5.40;99.90;;;;;;5069715;28;20527;-44
2022/12/15 01:51:56;;;;;;;29.58;13.15;;;-5.40;99.90;;;;;;5070286;28;20082;-45
2022/12/15 01:54:37;;;;;;;23.98;11.95;;;-5.60;99.90;;;;;;5070134;28;20486;-43
2022/12/15 01:57:07;;;;;;;27.23;12.25;;;-5.60;99.90;;;;;;5070184;28;20048;-43
2022/12/15 01:59:43;;;;;;;26.35;12.07;;;-5.60;99.90;;;;;;5069284;28;20048;-43
2022/12/15 02:02:09;;;;;;;33.35;12.50;;;-5.70;99.90;;;;;;5069859;28;20048;-42
2022/12/15 02:04:36;;;;;;;28.27;12.55;;;-5.60;99.90;;;;;;5069941;28;20037;-42
2022/12/15 02:07:03;;;;;;;30.55;13.32;;;-5.50;99.90;;;;;;5069982;28;20040;-43
2022/12/15 02:09:29;;;;;;;28.25;12.82;;;-5.50;99.90;;;;;;5070023;28;20033;-43
2022/12/15 02:12:19;;;;;;;30.40;12.70;;;-5.60;99.90;;;;;;5069614;28;20047;-43
2022/12/15 02:15:06;;;;;;;29.35;12.00;;;-5.50;99.90;;;;;;5070018;28;20671;-44
2022/12/15 02:17:44;;;;;;;26.60;12.82;;;-5.50;99.90;;;;;;5051614;28;20498;-43
2022/12/15 02:20:34;;;;;;;28.83;12.38;;;-5.60;99.90;;;;;;5068428;28;20053;-43
2022/12/15 02:23:00;;;;;;;26.83;12.18;;;-5.70;99.90;;;;;;5069296;28;20044;-43
2022/12/15 02:26:15;;;;;;;28.45;11.18;;;-5.60;99.90;;;;;;5069658;28;20036;-43
2022/12/15 02:29:23;;;;;;;25.90;11.43;;;-5.50;99.90;;;;;;5038841;28;20120;-42
2022/12/15 02:31:59;;;;;;;26.73;11.68;;;-5.70;99.90;;;;;;5069492;28;20028;-43
2022/12/15 02:34:28;;;;;;;26.73;11.75;;;-5.60;99.90;;;;;;5069486;28;20089;-45
2022/12/15 02:37:02;;;;;;;28.25;11.45;;;-5.70;99.90;;;;;;5069638;28;20075;-44
2022/12/15 02:39:28;;;;;;;26.05;11.55;;;-5.70;99.90;;;;;;5069804;28;20099;-46
2022/12/15 02:41:54;;;;;;;30.42;11.55;;;-5.60;99.90;;;;;;5069602;28;20060;-44
2022/12/15 02:44:24;;;;;;;27.02;11.77;;;-5.80;99.90;;;;;;5069582;28;20040;-44
2022/12/15 02:47:03;;;;;;;24.10;10.70;;;-5.70;99.90;;;;;;5069537;28;20040;-44
2022/12/15 02:49:55;;;;;;;27.27;11.48;;;-5.60;99.90;;;;;;5068861;28;20036;-43
2022/12/15 02:52:39;;;;;;;29.75;12.15;;;-5.50;99.90;;;;;;5068661;28;20563;-45
2022/12/15 02:55:15;;;;;;;;;;;-5.60;99.90;;;;;;5069065;28;20527;-43
2022/12/15 02:57:58;;;;;;;24.30;10.55;;;-5.70;99.90;;;;;;5069508;28;20295;-42
2022/12/15 03:00:24;;;;;;;24.67;10.65;;;-5.60;99.90;;;;;;5068752;28;20060;-43
2022/12/15 03:02:53;;;;;;;21.23;9.95;;;-5.70;99.90;;;;;;5069229;28;20048;-45
2022/12/15 03:05:19;;;;;;;21.55;10.52;;;-5.80;99.90;;;;;;5055563;28;20242;-44
2022/12/15 03:07:52;;;;;;;26.92;10.73;;;-5.60;99.90;;;;;;5069113;28;20044;-44
2022/12/15 03:10:19;;;;;;;21.83;10.27;;;-5.70;99.90;;;;;;5069494;28;20036;-44
2022/12/15 03:12:45;;;;;;;24.95;10.80;;;-5.60;99.90;;;;;;5071124;28;20048;-43
2022/12/15 03:15:11;;;;;;;25.48;11.38;;;-5.50;99.90;;;;;;5072499;28;20059;-44
2022/12/15 03:17:37;;;;;;;25.15;11.25;;;-5.70;99.90;;;;;;5054714;28;20121;-44
2022/12/15 03:20:04;;;;;;;27.05;11.88;;;-5.70;99.90;;;;;;5072484;28;20036;-45
2022/12/15 03:22:30;;;;;;;29.52;11.52;;;-5.60;99.90;;;;;;5072555;28;20062;-46
2022/12/15 03:24:56;;;;;;;28.02;10.63;;;-5.50;99.90;;;;;;5072806;28;20056;-44
2022/12/15 03:27:22;;;;;;;24.20;10.68;;;-5.80;99.90;;;;;;5072780;28;20488;-43
2022/12/15 03:29:48;;;;;;;25.92;11.20;;;-5.60;99.90;;;;;;5054423;28;20040;-42
2022/12/15 03:32:13;;;;;;;25.75;11.13;;;-5.60;99.90;;;;;;5054334;28;20040;-44
2022/12/15 03:34:39;;;;;;;28.25;11.75;;;-5.70;99.90;;;;;;5072468;28;20420;-47
2022/12/15 03:37:05;;;;;;;26.17;10.90;;;-5.60;99.90;;;;;;5072560;28;20033;-45
2022/12/15 03:39:31;;;;;;;23.60;11.23;;;-5.70;99.90;;;;;;5072512;28;20036;-45
2022/12/15 03:41:56;;;;;;;24.23;12.00;;;-5.70;99.90;;;;;;5072377;28;20033;-43
2022/12/15 03:44:22;;;;;;;27.10;11.70;;;-5.80;99.90;;;;;;5071970;28;20450;-45
2022/12/15 03:46:47;;;;;;;25.98;11.45;;;-5.70;99.90;;;;;;5072162;28;20127;-43
2022/12/15 03:49:13;;;;;;;25.67;12.10;;;-5.60;99.90;;;;;;5071728;28;20048;-44
2022/12/15 03:51:39;;;;;;;25.05;12.02;;;-5.80;99.90;;;;;;5072321;28;20075;-43
2022/12/15 03:54:06;;;;;;;25.27;11.80;;;-5.80;99.90;;;;;;5072233;28;20497;-45
2022/12/15 03:56:32;;;;;;;28.27;12.35;;;-5.80;99.90;;;;;;5070944;28;20036;-44
2022/12/15 03:58:57;;;;;;;28.48;12.25;;;-5.70;99.90;;;;;;5072040;28;20468;-44
2022/12/15 04:01:35;;;;;;;29.83;11.85;;;-5.70;99.90;;;;;;5053929;28;20051;-43
2022/12/15 04:04:01;;;;;;;27.55;11.55;;;-5.80;99.90;;;;;;5072027;28;20098;-47
2022/12/15 04:06:28;;;;;;;32.58;12.00;;;-5.70;99.90;;;;;;5072060;28;20037;-41
2022/12/15 04:08:54;;;;;;;25.95;11.77;;;-5.90;99.90;;;;;;5070378;28;20045;-42
2022/12/15 04:11:20;;;;;;;24.88;11.50;;;-5.70;99.90;;;;;;5071957;28;20552;-44
2022/12/15 04:13:46;;;;;;;26.90;12.02;;;-5.90;99.90;;;;;;5071457;28;20052;-43
2022/12/15 04:16:11;;;;;;;28.95;11.48;;;-5.70;99.90;;;;;;5071840;28;20041;-47
2022/12/15 04:18:37;;;;;;;25.98;12.27;;;-5.80;99.90;;;;;;5071108;28;20138;-46
2022/12/15 04:21:03;;;;;;;25.92;12.13;;;-5.70;99.90;;;;;;5071625;28;20056;-44
2022/12/15 04:23:29;;;;;;;30.65;13.48;;;-5.60;99.90;;;;;;5069327;28;20040;-43
2022/12/15 05:31:54;;;;;;;25.20;11.75;;;-5.70;99.90;;;;;;5070246;28;20300;-44
2022/12/15 05:34:25;;;;;;;25.45;11.25;;;-5.80;99.90;;;;;;5051453;28;20044;-44
2022/12/15 05:36:52;;;;;;;25.00;11.13;;;-5.80;99.90;;;;;;5070428;28;20395;-43
2022/12/15 05:39:18;;;;;;;29.05;11.43;;;-5.70;99.90;;;;;;5051849;28;20397;-42
2022/12/15 05:41:44;;;;;;;25.45;11.18;;;-5.90;99.90;;;;;;5070233;28;20036;-43
2022/12/15 05:44:10;;;;;;;24.08;10.95;;;-5.60;99.90;;;;;;5070203;28;20112;-45
2022/12/15 05:46:36;;;;;;;29.02;11.55;;;-5.90;99.90;;;;;;5052131;28;20530;-45
2022/12/15 05:49:04;;;;;;;24.00;11.63;;;-5.80;99.90;;;;;;5069703;28;20570;-45
2022/12/15 05:51:30;;;;;;;27.35;12.32;;;-5.90;99.90;;;;;;5070238;28;20495;-43
2022/12/15 05:53:55;;;;;;;27.05;11.50;;;-5.60;99.90;;;;;;5069731;28;20044;-45
2022/12/15 05:56:21;;;;;;;25.73;11.93;;;-5.60;99.90;;;;;;5070324;28;20182;-42
2022/12/15 05:58:47;;;;;;;25.10;12.18;;;-5.70;99.90;;;;;;5070109;28;20391;-42
2022/12/15 06:01:15;;;;;;;25.98;11.88;;;-5.70;99.90;;;;;;5069646;28;20062;-44
2022/12/15 06:03:41;;;;;;;26.15;11.80;;;-5.70;99.90;;;;;;5070123;28;20472;-46
2022/12/15 06:06:08;;;;;;;27.27;11.68;;;-5.80;99.90;;;;;;5050425;28;20044;-47
2022/12/15 06:08:36;;;;;;;24.83;11.73;;;-5.80;99.90;;;;;;5069043;28;20032;-46
2022/12/15 06:11:02;;;;;;;34.88;12.48;;;-5.70;99.90;;;;;;5069722;28;20048;-45
2022/12/15 06:13:35;;;;;;;24.63;10.85;;;-5.80;99.90;;;;;;5070142;28;20044;-43
2022/12/15 06:16:04;;;;;;;25.08;10.90;;;-5.80;99.90;;;;;;5051998;28;20555;-46
2022/12/15 06:18:41;;;;;;;23.27;10.77;;;-5.70;99.90;;;;;;5069169;28;20082;-43
2022/12/15 06:21:12;;;;;;;25.65;11.00;;;-5.50;99.90;;;;;;5070098;28;20112;-44
2022/12/15 06:23:39;;;;;;;23.40;11.82;;;-5.50;99.90;;;;;;5068087;28;20048;-43
2022/12/15 06:26:26;;;;;;;27.63;11.23;;;-5.50;99.90;;;;;;5069738;28;20040;-44
2022/12/15 06:28:53;;;;;;;23.40;10.45;;;-5.70;99.90;;;;;;5069645;28;20357;-43
2022/12/15 06:31:21;;;;;;;26.27;11.10;;;-5.50;99.90;;;;;;5069429;28;20052;-42
2022/12/15 06:33:48;;;;;;;27.40;11.95;;;-5.50;99.90;;;;;;5069321;28;20049;-44
2022/12/15 06:36:15;;;;;;;20.90;11.05;;;-5.60;99.90;;;;;;5069659;28;20080;-43
2022/12/15 06:38:44;;;;;;;27.60;11.98;;;-5.40;99.90;;;;;;5051533;28;20043;-44
2022/12/15 06:41:12;;;;;;;24.05;12.05;;;-5.60;99.90;;;;;;5064057;28;20094;-44
2022/12/15 06:43:38;;;;;;;23.85;11.32;;;-5.50;99.90;;;;;;5067810;28;20086;-44
2022/12/15 06:46:04;;;;;;;27.25;12.45;;;-5.40;99.90;;;;;;5069200;28;20075;-46
2022/12/15 06:48:30;;;;;;;25.08;10.30;;;-5.60;99.90;;;;;;5073003;28;20052;-45
2022/12/15 06:51:00;;;;;;;23.15;11.23;;;-5.70;99.90;;;;;;5073262;28;20075;-43
2022/12/15 06:53:26;;;;;;;27.10;11.10;;;-5.70;99.90;;;;;;5073196;28;20036;-42
2022/12/15 06:55:52;;;;;;;22.02;10.80;;;-5.60;99.90;;;;;;5072945;28;20090;-43
2022/12/15 06:58:17;;;;;;;23.20;10.75;;;-5.60;99.90;;;;;;5073325;28;20111;-43
2022/12/15 07:00:45;;;;;;;23.10;10.70;;;-5.50;99.90;;;;;;5072618;28;20050;-43
2022/12/15 07:03:16;;;;;;;22.70;10.52;;;-5.30;99.90;;;;;;5073112;28;20080;-44
2022/12/15 07:05:42;;;;;;;25.75;11.52;;;-5.40;99.90;;;;;;5036318;28;20047;-42
2022/12/15 07:08:10;;;;;;;26.23;11.95;;;-5.30;99.90;;;;;;5072908;28;20116;-42
2022/12/15 07:10:40;;;;;;;29.23;11.25;;;-5.60;99.90;;;;;;5072763;28;20114;-44
2022/12/15 07:13:09;;;;;;;22.48;11.35;;;-5.60;99.90;;;;;;5073031;28;20055;-43
2022/12/15 07:15:35;;;;;;;23.85;12.18;;;-5.30;99.90;;;;;;5072341;28;20052;-44
2022/12/15 07:18:01;;;;;;;29.52;12.07;;;-5.60;99.90;;;;;;5053906;28;20153;-44
2022/12/15 07:20:27;;;;;;;26.75;11.85;;;-5.60;99.90;;;;;;5072258;28;20036;-45
2022/12/15 07:22:53;;;;;;;28.90;11.65;;;-5.40;99.90;;;;;;5072396;28;20040;-44
2022/12/15 07:25:19;;;;;;;25.55;11.18;;;-5.50;99.90;;;;;;5072645;28;20028;-43
2022/12/15 07:27:45;;;;;;;28.40;12.52;;;-5.40;99.90;;;;;;5072798;28;20040;-43
2022/12/15 07:30:13;;;;;;;24.60;12.07;;;-5.40;99.90;;;;;;5072209;28;20041;-46
2022/12/15 07:32:39;;;;;;;25.35;11.68;;;-5.10;99.90;;;;;;5072385;28;20044;-43
2022/12/15 07:35:07;;;;;;;29.42;11.55;;;-5.20;99.90;;;;;;5071178;28;20504;-44
2022/12/15 07:37:33;;;;;;;26.55;11.77;;;-5.10;99.90;;;;;;5071337;28;20396;-48
2022/12/15 07:39:59;;;;;;;22.90;11.18;;;-5.10;99.90;;;;;;5072228;28;20036;-43
2022/12/15 07:42:28;;;;;;;26.20;11.27;;;-5.20;99.90;;;;;;5072355;28;20038;-46
2022/12/15 07:44:54;;;;;;;29.90;11.30;;;-5.20;99.90;;;;;;5072337;28;20033;-45
2022/12/15 07:47:19;;;;;;;27.55;11.65;;;-5.30;99.90;;;;;;5072127;28;20399;-43
2022/12/15 07:49:45;;;;;;;27.90;12.30;;;-5.20;99.90;;;;;;5071604;28;20447;-44
2022/12/15 07:52:12;;;;;;;27.55;11.25;;;-5.10;99.90;;;;;;5071538;28;20480;-44
2022/12/15 07:54:39;;;;;;;25.40;11.98;;;-5.20;99.90;;;;;;5071847;28;20082;-45
2022/12/15 07:57:06;;;;;;;26.73;11.02;;;-4.80;99.90;;;;;;5071377;28;20032;-48
2022/12/15 07:59:33;;;;;;;25.20;10.80;;;-5.10;99.90;;;;;;5071739;28;20045;-44
2022/12/15 08:01:59;;;;;;;32.42;12.13;;;-5.00;99.90;;;;;;5071699;28;20131;-47
2022/12/15 08:04:26;;;;;;;25.45;12.07;;;-5.00;99.90;;;;;;5071831;28;20040;-44
2022/12/15 08:06:55;;;;;;;30.52;12.88;;;-5.00;99.90;;;;;;5070402;28;20094;-45
2022/12/15 08:09:21;;;;;;;29.65;12.98;;;-4.50;99.90;;;;;;5072049;28;20041;-44
2022/12/15 08:11:46;;;;;;;27.38;13.10;;;-4.50;99.90;;;;;;5071923;28;20063;-47
2022/12/15 08:14:12;;;;;;;29.92;13.30;;;-4.80;99.90;;;;;;5071223;28;20067;-48
2022/12/15 08:16:38;;;;;;;29.63;12.63;;;-4.60;99.90;;;;;;5066499;28;20530;-45
2022/12/15 08:19:05;;;;;;;32.92;14.13;;;-4.40;99.90;;;;;;5061217;28;20098;-44
2022/12/15 08:21:32;;;;;;;33.20;13.75;;;-4.20;99.90;;;;;;5071457;28;20041;-44
2022/12/15 08:23:59;;;;;;;28.38;13.00;;;-4.60;99.90;;;;;;5068180;28;20098;-46
2022/12/15 08:26:25;;;;;;;28.73;12.73;;;-3.80;99.90;;;;;;5062259;28;20045;-44
2022/12/15 08:28:51;;;;;;;27.27;12.73;;;-4.00;99.90;;;;;;5062930;28;20127;-45
2022/12/15 08:31:20;;;;;;;33.33;14.98;;;-3.80;99.90;;;;;;5062356;28;20115;-46
2022/12/15 08:33:46;;;;;;;31.60;13.68;;;-3.80;99.90;;;;;;5059505;28;20132;-47
2022/12/15 08:36:14;;;;;;;37.53;14.43;;;-4.10;99.90;;;;;;5062068;28;20524;-45
2022/12/15 08:38:41;;;;;;;31.95;14.25;;;-4.00;99.90;;;;;;5061905;28;20047;-45
2022/12/15 08:41:08;;;;;;;37.50;15.20;;;-3.50;99.90;;;;;;5044887;28;20044;-46
2022/12/15 08:43:34;;;;;;;33.17;13.88;;;-2.70;99.90;;;;;;5061041;28;20075;-45
2022/12/15 08:46:00;;;;;;;37.08;15.90;;;-3.90;99.90;;;;;;5041833;28;20033;-46
2022/12/15 08:48:26;;;;;;;32.92;14.48;;;-3.30;99.90;;;;;;5061270;28;20500;-45
2022/12/15 08:50:54;;;;;;;31.77;14.50;;;-3.30;99.90;;;;;;5062158;28;20042;-44
2022/12/15 08:53:20;;;;;;;32.75;15.68;;;-3.70;99.90;;;;;;5059737;28;20108;-45
2022/12/15 08:55:45;;;;;;;31.75;14.30;;;-3.60;99.90;;;;;;5057233;28;20045;-44
2022/12/15 08:58:11;;;;;;;29.10;13.65;;;-3.70;99.90;;;;;;5060713;28;20345;-45
2022/12/15 09:00:36;;;;;;;32.15;14.80;;;-3.60;99.90;;;;;;5060078;28;20063;-44
2022/12/15 09:03:02;;;;;;;33.00;15.00;;;-2.90;99.90;;;;;;5062672;28;20048;-44
2022/12/15 09:05:28;;;;;;;30.35;14.75;;;-3.00;99.90;;;;;;5061995;28;20047;-44
2022/12/15 09:07:56;;;;;;;33.95;15.50;;;-3.30;99.90;;;;;;5061465;28;20032;-45
2022/12/15 09:10:22;;;;;;;33.85;14.52;;;-3.00;99.90;;;;;;5060685;28;20511;-48
2022/12/15 09:12:49;;;;;;;36.38;16.85;;;-2.60;99.90;;;;;;5060679;28;20499;-44
2022/12/15 09:15:15;;;;;;;37.92;17.42;;;-3.00;99.90;;;;;;5042770;28;20127;-46
2022/12/15 09:17:40;;;;;;;43.65;18.25;;;-2.80;99.90;;;;;;5060393;28;20132;-45
2022/12/15 09:20:08;;;;;;;31.75;15.57;;;-2.20;99.90;;;;;;5059429;28;20114;-44
2022/12/15 09:22:35;;;;;;;36.00;17.30;;;-2.00;99.90;;;;;;5042623;28;20044;-45
2022/12/15 09:25:01;;;;;;;34.42;18.92;;;-2.10;99.90;;;;;;5060156;28;20364;-45
2022/12/15 09:27:29;;;;;;;35.72;17.90;;;-1.90;99.90;;;;;;5060647;28;20032;-45
2022/12/15 09:29:58;;;;;;;33.47;17.38;;;-2.20;99.90;;;;;;5060308;28;20045;-46
2022/12/15 09:32:24;;;;;;;32.90;16.35;;;-2.10;99.90;;;;;;5060393;28;20074;-44
2022/12/15 09:34:53;;;;;;;38.72;17.52;;;-2.30;99.90;;;;;;5060218;28;20055;-44
2022/12/15 09:37:19;;;;;;;38.20;17.00;;;-2.30;99.90;;;;;;5059528;28;20036;-44
2022/12/15 09:39:45;;;;;;;32.55;16.08;;;-1.70;99.90;;;;;;5041471;28;20051;-45
2022/12/15 09:42:25;;;;;;;37.15;17.25;;;-2.10;99.90;;;;;;5056989;28;20519;-46
2022/12/15 09:45:12;;;;;;;35.92;16.25;;;-2.00;99.90;;;;;;5059162;28;20060;-45
2022/12/15 09:47:59;;;;;;;27.48;15.35;;;-1.40;99.90;;;;;;5058193;28;20042;-46
2022/12/15 09:50:32;;;;;;;31.75;15.57;;;-1.60;99.90;;;;;;5042090;28;20105;-44
2022/12/15 09:53:01;;;;;;;34.85;16.60;;;-1.90;99.90;;;;;;5060050;28;20036;-46
2022/12/15 09:55:29;;;;;;;27.70;15.43;;;-1.60;99.90;;;;;;5058002;28;20035;-45
2022/12/15 09:58:25;;;;;;;28.92;15.73;;;-1.50;99.90;;;;;;5032675;28;20124;-44
2022/12/15 10:00:57;;;;;;;31.63;16.17;;;-1.90;99.90;;;;;;5058705;28;20048;-44
2022/12/15 10:03:38;;;;;;;28.17;15.52;;;-1.30;99.90;;;;;;5058265;28;20470;-46
2022/12/15 10:06:29;;;;;;;37.60;18.17;;;-1.00;99.90;;;;;;5060240;28;20047;-46
2022/12/15 10:09:01;;;;;;;31.33;16.13;;;-1.40;99.90;;;;;;5060882;28;20115;-46
2022/12/15 10:11:44;;;;;;;31.63;16.80;;;-1.10;99.90;;;;;;5060742;28;20579;-50
2022/12/15 10:14:48;;;;;;;23.92;15.13;;;-0.50;99.90;;;;;;5057831;28;20047;-48
2022/12/15 10:17:25;;;;;;;24.67;14.25;;;-0.40;99.90;;;;;;5061266;28;20098;-47
2022/12/15 10:20:11;;;;;;;22.45;12.90;;;-0.70;99.90;;;;;;5060392;28;20036;-47
2022/12/15 10:22:37;;;;;;;24.35;13.85;;;-0.70;99.90;;;;;;5052658;28;20139;-43
2022/12/15 10:25:20;;;;;;;25.80;14.10;;;-0.20;99.90;;;;;;5071203;28;20127;-45
2022/12/15 10:28:11;;;;;;;22.83;13.18;;;-0.40;99.90;;;;;;5052780;28;20052;-47
2022/12/15 10:30:50;;;;;;;20.85;12.27;;;0.10;99.90;;;;;;5072349;28;20090;-47
2022/12/15 10:33:20;;;;;;;22.13;12.15;;;-0.10;99.90;;;;;;5073659;28;20432;-44
2022/12/15 10:35:47;;;;;;;21.38;12.07;;;-0.30;99.90;;;;;;5072174;28;20048;-44
2022/12/15 10:38:44;;;;;;;23.27;13.13;;;-0.20;99.90;;;;;;5073339;28;20033;-45
2022/12/15 10:41:31;;;;;;;23.00;12.63;;;-0.50;99.90;;;;;;5073050;28;20064;-45
2022/12/15 10:43:57;;;;;;;22.45;12.55;;;0.30;99.90;;;;;;5054148;28;20037;-46
2022/12/15 10:46:28;;;;;;;23.38;13.55;;;0.60;99.90;;;;;;5073511;28;20561;-45
2022/12/15 10:49:21;;;;;;;23.30;14.07;;;-0.20;99.90;;;;;;5072456;28;20068;-44
2022/12/15 10:51:56;;;;;;;25.17;13.88;;;0.50;99.90;;;;;;5052909;28;20047;-44
2022/12/15 10:54:25;;;;;;;26.80;14.30;;;-0.20;99.90;;;;;;5055189;28;20036;-46
2022/12/15 10:56:56;;;;;;;31.02;14.65;;;0.00;99.90;;;;;;5073516;28;20040;-46
2022/12/15 10:59:23;;;;;;;24.02;13.32;;;-0.20;99.90;;;;;;5072425;28;20387;-45
2022/12/15 11:01:50;;;;;;;31.42;14.65;;;-0.20;99.90;;;;;;5072770;28;20091;-46
2022/12/15 11:04:29;;;;;;;26.90;14.73;;;-0.40;99.90;;;;;;5073107;28;20044;-46
2022/12/15 11:06:56;;;;;;;30.85;16.45;;;-0.40;99.90;;;;;;5054984;28;20036;-49
2022/12/15 11:09:37;;;;;;;29.52;17.38;;;-0.20;99.90;;;;;;5073047;28;20105;-44
2022/12/15 11:15:37;;;;;;;25.55;16.17;;;0.90;99.90;;;;;;5072035;28;20055;-47
2022/12/15 11:18:06;;;;;;;23.20;13.63;;;1.10;99.90;;;;;;5071718;28;20145;-48
2022/12/15 11:20:37;;;;;;;24.20;13.85;;;0.90;99.90;;;;;;5054793;28;20181;-44
2022/12/15 11:23:15;;;;;;;24.23;14.73;;;1.00;99.90;;;;;;5071348;28;20121;-47
2022/12/15 11:26:45;;;;;;;22.35;12.90;;;1.70;99.90;;;;;;5068963;28;20086;-46
2022/12/15 11:29:26;;;;;;;23.58;14.27;;;1.80;99.90;;;;;;4958309;28;20053;-45
2022/12/15 11:31:54;;;;;;;19.63;12.13;;;2.50;99.90;;;;;;4948436;28;20030;-45
2022/12/15 11:34:23;;;;;;;18.00;10.48;;;3.10;99.90;;;;;;5035612;28;20693;-44
2022/12/15 11:36:49;;;;;;;16.40;9.75;;;3.10;99.90;;;;;;5061176;28;20625;-47
2022/12/15 11:39:42;;;;;;;21.67;10.63;;;3.00;99.90;;;;;;5059113;28;20120;-45
2022/12/15 11:42:25;;;;;;;19.30;9.30;;;3.20;99.90;;;;;;5060444;28;20472;-44
2022/12/15 11:45:03;;;;;;;18.75;9.75;;;3.30;99.90;;;;;;5041052;28;20083;-45
2022/12/15 11:47:45;;;;;;;18.00;10.13;;;3.40;99.90;;;;;;5061886;28;20195;-44
2022/12/15 11:50:30;;;;;;;16.60;9.85;;;3.50;99.90;;;;;;5062276;28;20038;-45
2022/12/15 11:53:22;;;;;;;;;;;3.70;99.90;;;;;;5060831;28;20035;-44
2022/12/15 11:56:17;;;;;;;16.15;8.85;;;3.80;99.90;;;;;;5045969;28;20337;-47
2022/12/15 11:58:49;;;;;;;15.88;9.35;;;3.80;99.90;;;;;;5035267;28;20047;-44
2022/12/15 12:01:38;;;;;;;22.52;9.13;;;3.90;99.90;;;;;;5058835;28;20052;-46
2022/12/15 12:04:19;;;;;;;17.33;9.10;;;3.90;99.90;;;;;;5058123;28;20101;-45
2022/12/15 12:07:14;;;;;;;14.25;8.57;;;4.00;99.90;;;;;;5057279;28;20706;-47
2022/12/15 12:10:08;;;;;;;13.13;8.30;;;3.90;99.90;;;;;;5041237;28;20047;-47
2022/12/15 12:13:03;;;;;;;15.73;8.35;;;3.90;99.90;;;;;;5060024;28;21308;-46
2022/12/15 12:15:48;;;;;;;18.88;9.30;;;3.90;99.90;;;;;;5040767;28;20047;-46
2022/12/15 12:18:21;;;;;;;17.95;8.57;;;3.90;99.90;;;;;;5059345;28;20032;-45
2022/12/15 12:21:02;;;;;;;14.70;8.52;;;4.00;99.90;;;;;;5059113;28;20047;-45
2022/12/15 12:23:43;;;;;;;17.75;8.65;;;3.60;99.90;;;;;;5059090;28;20439;-46
2022/12/15 12:26:31;;;;;;;16.60;9.07;;;3.30;99.90;;;;;;5043152;28;20388;-46
2022/12/15 12:29:24;;;;;;;15.48;9.05;;;3.40;99.90;;;;;;5057830;28;20086;-45
2022/12/15 12:31:53;;;;;;;14.27;8.85;;;3.50;99.90;;;;;;5058276;28;20059;-44
2022/12/15 12:35:06;;;;;;;17.52;8.63;;;3.80;99.90;;;;;;5064197;28;20049;-45
2022/12/15 12:37:42;;;;;;;17.23;9.18;;;4.00;99.90;;;;;;5063341;28;20052;-44
2022/12/15 12:40:20;;;;;;;13.70;8.05;;;4.10;99.90;;;;;;5070702;28;20423;-42
2022/12/15 12:43:04;;;;;;;15.00;8.45;;;4.60;99.90;;;;;;5070841;28;20044;-44
2022/12/15 12:45:35;;;;;;;19.73;9.35;;;4.20;99.90;;;;;;5070705;28;20495;-45
2022/12/15 12:48:36;;;;;;;14.88;8.60;;;4.30;99.90;;;;;;5071052;28;20127;-45
2022/12/15 12:51:35;;;;;;;14.93;8.45;;;4.20;99.90;;;;;;5025284;28;20048;-44
2022/12/15 12:54:01;;;;;;;16.23;8.75;;;4.20;99.90;;;;;;5070977;28;20437;-45
2022/12/15 12:56:40;;;;;;;17.50;9.15;;;4.40;99.90;;;;;;5071022;28;20395;-47
2022/12/15 12:59:28;;;;;;;14.25;8.70;;;4.50;99.90;;;;;;5069779;28;20051;-45
2022/12/15 13:02:17;;;;;;;16.60;8.98;;;4.60;99.90;;;;;;5070247;28;20110;-46
2022/12/15 13:04:50;;;;;;;14.15;8.80;;;4.60;99.90;;;;;;5070410;28;20141;-45
2022/12/15 13:07:36;;;;;;;17.13;9.45;;;4.50;99.90;;;;;;5070858;28;20071;-46
2022/12/15 13:10:08;;;;;;;16.20;8.95;;;4.30;99.90;;;;;;5070668;28;20036;-44
2022/12/15 13:12:46;;;;;;;13.85;8.82;;;4.10;99.90;;;;;;5052134;28;20491;-44
2022/12/15 13:15:28;;;;;;;17.95;9.20;;;3.90;99.90;;;;;;5070407;28;20040;-45
2022/12/15 13:17:59;;;;;;;16.50;8.82;;;3.70;99.90;;;;;;5069679;28;20086;-45
2022/12/15 13:20:29;;;;;;;16.98;9.32;;;3.60;99.90;;;;;;5069875;28;20102;-45
2022/12/15 13:23:17;;;;;;;16.05;9.82;;;3.60;99.90;;;;;;5070239;28;20036;-45
2022/12/15 13:25:52;;;;;;;16.35;9.73;;;3.60;99.90;;;;;;5069402;28;20434;-43
2022/12/15 13:28:41;;;;;;;13.65;8.82;;;3.60;99.90;;;;;;5070381;28;20468;-44
2022/12/15 13:31:11;;;;;;;14.10;9.10;;;3.50;99.90;;;;;;5052440;28;20115;-47
2022/12/15 13:33:51;;;;;;;16.80;9.05;;;3.50;99.90;;;;;;5070378;28;20466;-45
2022/12/15 13:36:38;;;;;;;16.58;8.80;;;3.50;99.90;;;;;;5070183;28;20044;-45
2022/12/15 13:39:16;;;;;;;16.73;9.60;;;3.70;99.90;;;;;;5050663;28;20049;-48
2022/12/15 13:41:47;;;;;;;18.65;9.52;;;3.80;99.90;;;;;;5051466;28;20047;-46
2022/12/15 13:44:35;;;;;;;19.25;10.07;;;3.80;99.90;;;;;;5070146;28;20400;-45
2022/12/15 13:47:24;;;;;;;17.35;9.23;;;3.80;99.90;;;;;;5069186;28;20079;-45
2022/12/15 13:49:53;;;;;;;16.30;9.77;;;3.70;99.90;;;;;;5069206;28;20040;-44
2022/12/15 13:52:22;;;;;;;17.35;9.70;;;3.60;99.90;;;;;;5070124;28;20553;-47
2022/12/15 13:54:54;;;;;;;17.38;10.15;;;3.60;99.90;;;;;;5069903;28;20036;-45
2022/12/15 13:57:24;;;;;;;17.25;9.63;;;3.40;99.90;;;;;;5068613;28;20036;-45
2022/12/15 13:59:51;;;;;;;21.83;10.40;;;3.40;99.90;;;;;;5069568;28;20045;-45
2022/12/15 14:02:37;;;;;;;18.23;10.30;;;3.40;99.90;;;;;;5069510;28;20559;-48
2022/12/15 14:05:04;;;;;;;18.65;10.55;;;3.20;99.90;;;;;;5069465;28;20936;-47
2022/12/15 14:07:29;;;;;;;17.08;10.20;;;3.20;99.90;;;;;;5048409;28;20078;-46
2022/12/15 14:09:55;;;;;;;16.70;10.43;;;3.10;99.90;;;;;;5068991;28;20037;-45
2022/12/15 14:12:22;;;;;;;17.92;10.85;;;3.00;99.90;;;;;;5068990;28;20056;-45
2022/12/15 14:14:48;;;;;;;17.13;10.32;;;3.00;99.90;;;;;;5068112;28;20492;-44
2022/12/15 14:17:17;;;;;;;25.90;11.73;;;2.90;99.90;;;;;;5068897;28;20467;-45
2022/12/15 14:19:48;;;;;;;19.45;11.27;;;2.90;99.90;;;;;;5068418;28;20037;-46
2022/12/15 14:22:28;;;;;;;19.48;10.93;;;2.90;99.90;;;;;;5068608;28;20055;-46
2022/12/15 14:25:12;;;;;;;21.48;11.25;;;2.80;99.90;;;;;;5065746;28;20055;-44
2022/12/15 14:27:37;;;;;;;18.70;11.35;;;2.70;99.90;;;;;;5051059;28;20098;-47
2022/12/15 14:30:28;;;;;;;18.73;11.32;;;2.60;99.90;;;;;;5069209;28;20028;-49
2022/12/15 14:33:03;;;;;;;16.67;11.40;;;2.50;99.90;;;;;;5069108;28;20081;-50
2022/12/15 14:35:35;;;;;;;19.38;11.00;;;2.80;99.90;;;;;;5065762;28;20041;-47
2022/12/15 14:38:06;;;;;;;22.63;11.50;;;2.40;99.90;;;;;;5064207;28;20455;-46
2022/12/15 14:40:35;;;;;;;17.02;10.40;;;2.50;99.90;;;;;;5063244;28;20041;-45
2022/12/15 14:43:10;;;;;;;17.63;11.00;;;2.40;99.90;;;;;;5062668;28;20043;-45
2022/12/15 14:45:36;;;;;;;21.50;10.75;;;2.40;99.90;;;;;;5050367;28;20052;-46
2022/12/15 14:48:08;;;;;;;18.27;11.30;;;2.40;99.90;;;;;;5065362;28;20037;-47
2022/12/15 14:50:35;;;;;;;20.33;11.57;;;2.40;99.90;;;;;;5048291;28;20032;-48
2022/12/15 14:53:05;;;;;;;18.88;12.02;;;2.40;99.90;;;;;;5060974;28;20075;-47
2022/12/15 14:55:31;;;;;;;29.65;13.02;;;2.30;99.90;;;;;;5066143;28;20048;-49
2022/12/15 14:57:56;;;;;;;20.58;11.93;;;2.20;99.90;;;;;;5065854;28;20104;-47
2022/12/15 15:00:30;;;;;;;19.42;11.60;;;2.20;99.90;;;;;;5063475;28;20174;-48
2022/12/15 15:03:26;;;;;;;20.58;11.70;;;2.20;99.90;;;;;;5060203;28;20106;-47
2022/12/15 15:05:57;;;;;;;20.92;11.63;;;2.10;99.90;;;;;;5046720;28;20049;-44
2022/12/15 15:08:35;;;;;;;18.98;10.70;;;2.10;99.90;;;;;;5067277;28;20040;-45
2022/12/15 15:11:22;;;;;;;20.00;11.95;;;2.00;99.90;;;;;;5065601;28;20487;-47
2022/12/15 15:13:54;;;;;;;22.38;11.70;;;1.90;99.90;;;;;;5062731;28;20049;-49
2022/12/15 15:16:20;;;;;;;18.25;10.40;;;1.80;99.90;;;;;;5071759;28;20043;-47
2022/12/15 15:18:53;;;;;;;18.35;10.90;;;1.80;99.90;;;;;;5069923;28;20044;-47
2022/12/15 15:21:22;;;;;;;21.05;12.23;;;1.70;99.90;;;;;;5053392;28;20491;-45
2022/12/15 15:24:08;;;;;;;21.05;13.02;;;1.60;99.90;;;;;;5053761;28;20036;-45